M I D A S
Marine Information and Data Acquisition System
Tripno 2002 of the Zeeleeuw from 2010-12-20 08:39:17 to 2010-12-20 16:13:24
Back to CruiseResearch ActivitiesStationsMapUnderway DataData graphs

EquipmentUnitsComments
TimeDGPSUTC
LatitudeDGPSDM.mWGS84
LongitudeDGPSDM.mWGS84
SpeedMeteo Stationm/sRelative wind speed
DirectionMeteo StationdegRelative wind direction
TemperatureMeteo Stationdeg CelciusAir temperature
PressureMeteo StationPaAtmospheric pressure
HumidityMeteo Station%Relative humidity
Missing or incorrect values are displayed as -999
Metereological data collected by the RV Zeeleeuw from 2010-12-20 08:33:48 to 2010-12-20 16:21:29
Time Latitude Longitude Speed Direction Temperature Pressure Humidity
2010-12-20 08:34 51°13.664 2°55.961 -999 359 -2.7 100200 37
2010-12-20 08:35 51°13.663 2°55.961 -999 2 -2.7 100200 37
2010-12-20 08:36 51°13.66 2°55.959 -999 9 -2.7 100200 37
2010-12-20 08:37 51°13.664 2°55.961 -999 358 -2.7 100200 37
2010-12-20 08:38 51°13.663 2°55.961 -999 5 -2.7 100200 37
2010-12-20 08:39 51°13.663 2°55.961 -999 354 -2.7 100200 36
2010-12-20 08:40 51°13.662 2°55.959 -999 8 -2.7 100210 37
2010-12-20 08:41 51°13.673 2°55.92 -999 22 -2.6 100200 37
2010-12-20 08:42 51°13.681 2°55.843 -999 22 -2.6 100200 37
2010-12-20 08:43 51°13.686 2°55.763 -999 35 -2.6 100210 37
2010-12-20 08:44 51°13.694 2°55.75 -999 38 -2.6 100210 37
2010-12-20 08:45 51°13.696 2°55.749 0.1 76 -2.6 100210 37
2010-12-20 08:46 51°13.713 2°55.739 -999 312 -2.5 100220 38
2010-12-20 08:47 51°13.781 2°55.677 -999 284 -2.4 100220 36
2010-12-20 08:48 51°13.883 2°55.591 -999 307 -2.4 100220 37
2010-12-20 08:49 51°14.009 2°55.502 -999 284 -2.4 100210 37
2010-12-20 08:50 51°14.134 2°55.41 -999 284 -2.4 100220 38
2010-12-20 08:51 51°14.259 2°55.316 -999 307 -2.4 100220 38
2010-12-20 08:52 51°14.396 2°55.164 -999 284 -2.3 100210 38
2010-12-20 08:53 51°14.537 2°54.999 -999 323 -2.2 100210 38
2010-12-20 08:54 51°14.679 2°54.843 0.1 284 -2.1 100210 38
2010-12-20 08:55 51°14.822 2°54.683 -999 307 -2.1 100210 37
2010-12-20 08:56 51°14.972 2°54.509 -999 284 -2 100220 40
2010-12-20 08:57 51°15.11 2°54.346 -999 284 -1.8 100220 38
2010-12-20 08:58 51°15.243 2°54.174 0.1 307 -1.7 100220 38
2010-12-20 08:59 51°15.384 2°53.995 0.1 284 -1.6 100220 38
2010-12-20 09:00 51°15.529 2°53.826 -999 284 -1.5 100230 38
2010-12-20 09:01 51°15.691 2°53.691 0.1 311 -1.5 100230 38
2010-12-20 09:02 51°15.855 2°53.559 -999 307 -1.4 100230 38
2010-12-20 09:03 51°16.022 2°53.438 0.1 283 -1.4 100210 37
2010-12-20 09:04 51°16.186 2°53.318 -999 284 -1.3 100210 39
2010-12-20 09:05 51°16.353 2°53.201 -999 284 -1.3 100210 38
2010-12-20 09:06 51°16.52 2°53.084 -999 284 -1.2 100220 39
2010-12-20 09:07 51°16.685 2°52.965 -999 307 -1.2 100220 39
2010-12-20 09:08 51°16.851 2°52.846 -999 284 -1.1 100220 38
2010-12-20 09:09 51°17.014 2°52.726 0.1 284 -1.1 100220 39
2010-12-20 09:10 51°17.178 2°52.606 1.5 279 -1.1 100210 38
2010-12-20 09:11 51°17.343 2°52.486 -999 307 -1 100220 37
2010-12-20 09:12 51°17.507 2°52.363 -999 307 -1 100220 39
2010-12-20 09:13 51°17.672 2°52.242 -999 284 -1 100220 39
2010-12-20 09:14 51°17.835 2°52.121 -999 307 -0.9 100220 39
2010-12-20 09:15 51°18.001 2°52.001 -999 284 -0.9 100220 38
2010-12-20 09:16 51°18.175 2°51.871 -999 307 -1 100220 38
2010-12-20 09:17 51°18.352 2°51.742 -999 284 -0.9 100220 38
2010-12-20 09:18 51°18.529 2°51.609 -999 284 -0.9 100220 38
2010-12-20 09:19 51°18.707 2°51.476 -999 284 -0.9 100230 37
2010-12-20 09:20 51°18.884 2°51.343 -999 284 -0.8 100230 39
2010-12-20 09:21 51°19.064 2°51.22 -999 284 -0.8 100220 38
2010-12-20 09:22 51°19.246 2°51.099 -999 284 -0.8 100220 39
2010-12-20 09:23 51°19.427 2°50.978 -999 284 -0.7 100230 39
2010-12-20 09:24 51°19.611 2°50.857 -999 284 -0.7 100230 38
2010-12-20 09:25 51°19.792 2°50.741 -999 307 -0.7 100230 39
2010-12-20 09:26 51°19.972 2°50.624 -999 284 -0.6 100230 39
2010-12-20 09:27 51°20.152 2°50.506 -999 284 -0.6 100230 37
2010-12-20 09:28 51°20.332 2°50.385 -999 284 -0.6 100230 39
2010-12-20 09:29 51°20.514 2°50.263 -999 283 -0.6 100230 39
2010-12-20 09:30 51°20.667 2°50.161 -999 283 -0.5 100220 39
2010-12-20 09:31 51°20.799 2°50.075 -999 284 -0.5 100230 39
2010-12-20 09:32 51°20.928 2°49.989 -999 307 -0.5 100220 39
2010-12-20 09:33 51°21.058 2°49.905 -999 284 -0.4 100230 39
2010-12-20 09:34 51°21.189 2°49.822 -999 307 -0.4 100230 39
2010-12-20 09:35 51°21.32 2°49.74 -999 283 -0.3 100240 38
2010-12-20 09:36 51°21.455 2°49.657 -999 307 -0.3 100230 39
2010-12-20 09:37 51°21.614 2°49.559 -999 307 -0.2 100230 39
2010-12-20 09:38 51°21.805 2°49.441 -999 307 -0.2 100230 39
2010-12-20 09:39 51°22 2°49.324 -999 283 -0.1 100230 39
2010-12-20 09:40 51°22.191 2°49.211 -999 307 -0.1 100220 39
2010-12-20 09:41 51°22.381 2°49.093 -999 283 -0.1 100220 39
2010-12-20 09:42 51°22.569 2°48.978 -999 284 -0.1 100220 39
2010-12-20 09:43 51°22.754 2°48.861 -999 307 -999 100230 37
2010-12-20 09:44 51°22.942 2°48.744 -999 283 -999 100240 39
2010-12-20 09:45 51°23.13 2°48.625 2.7 304 0.2 100240 40
2010-12-20 09:46 51°23.32 2°48.501 3.5 285 0.1 100230 40
2010-12-20 09:47 51°23.512 2°48.382 3.4 280 0.1 100240 37
2010-12-20 09:48 51°23.706 2°48.267 2.3 311 0.2 100240 40
2010-12-20 09:49 51°23.902 2°48.15 2.6 279 0.2 100240 38
2010-12-20 09:50 51°24.095 2°48.036 3 308 0.3 100230 37
2010-12-20 09:51 51°24.288 2°47.92 -999 284 0.3 100250 38
2010-12-20 09:52 51°24.484 2°47.802 -999 307 0.3 100240 39
2010-12-20 09:53 51°24.681 2°47.682 4.9 285 0.3 100260 38
2010-12-20 09:54 51°24.879 2°47.559 4.9 309 0.3 100240 40
2010-12-20 09:55 51°25.067 2°47.403 2.7 283 0.3 100250 40
2010-12-20 09:56 51°25.25 2°47.245 4.1 305 0.3 100240 40
2010-12-20 09:57 51°25.429 2°47.091 4.8 286 0.5 100230 39
2010-12-20 09:58 51°25.609 2°46.936 4.3 304 0.5 100250 37
2010-12-20 09:59 51°25.788 2°46.783 5.5 281 0.5 100240 36
2010-12-20 10:00 51°25.968 2°46.628 3.6 303 0.6 100240 40
2010-12-20 10:01 51°26.149 2°46.476 4.9 281 0.6 100260 37
2010-12-20 10:02 51°26.329 2°46.322 4.8 305 0.6 100260 39
2010-12-20 10:03 51°26.509 2°46.165 4.9 281 0.7 100260 37
2010-12-20 10:04 51°26.69 2°46.01 4.2 303 0.8 100270 38
2010-12-20 10:05 51°26.873 2°45.85 3.1 282 0.8 100260 37
2010-12-20 10:06 51°27.058 2°45.691 4.6 307 0.8 100250 37
2010-12-20 10:07 51°27.243 2°45.534 3.9 282 0.8 100250 35
2010-12-20 10:08 51°27.429 2°45.377 5.1 305 0.7 100250 39
2010-12-20 10:09 51°27.617 2°45.224 3.3 310 0.8 100260 39
2010-12-20 10:10 51°27.804 2°45.072 4.5 304 0.9 100260 37
2010-12-20 10:11 51°27.989 2°44.922 3.8 285 0.9 100250 39
2010-12-20 10:12 51°28.177 2°44.775 4.6 303 1 100250 38
2010-12-20 10:13 51°28.363 2°44.627 4.1 286 1 100260 39
2010-12-20 10:14 51°28.55 2°44.478 4.3 310 1 100240 37
2010-12-20 10:15 51°28.738 2°44.329 4.1 281 1 100250 35
2010-12-20 10:16 51°28.926 2°44.177 3.1 306 1.1 100260 37
2010-12-20 10:17 51°29.112 2°44.025 4.8 286 1.2 100260 36
2010-12-20 10:18 51°29.299 2°43.872 5.3 306 1.2 100240 37
2010-12-20 10:19 51°29.486 2°43.719 3.9 305 1.2 100250 36
2010-12-20 10:20 51°29.673 2°43.57 4.6 309 1.2 100260 39
2010-12-20 10:21 51°29.861 2°43.421 5.1 308 1.2 100250 38
2010-12-20 10:22 51°30.057 2°43.338 -999 10 1.2 100240 36
2010-12-20 10:23 51°30.262 2°43.47 -999 356 1.3 100250 36
2010-12-20 10:24 51°30.468 2°43.604 -999 17 1.4 100250 37
2010-12-20 10:25 51°30.674 2°43.74 -999 21 1.5 100250 37
2010-12-20 10:26 51°30.88 2°43.876 -999 27 1.5 100250 36
2010-12-20 10:27 51°31.086 2°44.014 -999 6 1.5 100260 36
2010-12-20 10:28 51°31.294 2°44.151 -999 11 1.6 100260 36
2010-12-20 10:29 51°31.509 2°44.289 -999 7 1.7 100260 36
2010-12-20 10:30 51°31.726 2°44.433 -999 14 1.7 100260 36
2010-12-20 10:31 51°31.943 2°44.583 -999 10 1.7 100260 35
2010-12-20 10:32 51°32.163 2°44.711 -999 12 1.8 100260 36
2010-12-20 10:33 51°32.384 2°44.828 -999 8 1.8 100250 36
2010-12-20 10:34 51°32.608 2°44.947 -999 338 1.8 100250 36
2010-12-20 10:35 51°32.83 2°45.066 -999 6 1.8 100250 36
2010-12-20 10:36 51°33.054 2°45.184 -999 23 1.8 100260 36
2010-12-20 10:37 51°33.276 2°45.3 -999 16 1.9 100250 37
2010-12-20 10:38 51°33.497 2°45.425 -999 29 1.9 100250 37
2010-12-20 10:39 51°33.717 2°45.546 -999 348 1.9 100270 35
2010-12-20 10:40 51°33.939 2°45.657 -999 353 1.9 100260 36
2010-12-20 10:41 51°34.161 2°45.76 -999 283 1.9 100260 36
2010-12-20 10:42 51°34.383 2°45.855 -999 284 1.9 100270 36
2010-12-20 10:43 51°34.61 2°45.911 -999 307 2 100260 36
2010-12-20 10:44 51°34.836 2°45.964 -999 284 2.1 100250 37
2010-12-20 10:45 51°35.061 2°46.022 -999 307 2.2 100250 37
2010-12-20 10:46 51°35.285 2°46.082 -999 349 2.3 100260 36
2010-12-20 10:47 51°35.509 2°46.152 -999 11 2.2 100240 35
2010-12-20 10:48 51°35.733 2°46.218 -999 1 2.2 100240 36
2010-12-20 10:49 51°35.957 2°46.285 -999 351 2.2 100250 36
2010-12-20 10:50 51°36.171 2°46.423 -999 15 2.2 100240 36
2010-12-20 10:51 51°36.387 2°46.575 -999 13 2.2 100250 36
2010-12-20 10:52 51°36.606 2°46.71 -999 359 2.1 100250 36
2010-12-20 10:53 51°36.826 2°46.83 -999 348 2 100250 35
2010-12-20 10:54 51°37.047 2°46.945 -999 284 1.9 100260 35
2010-12-20 10:55 51°37.268 2°47.061 -999 284 1.9 100260 34
2010-12-20 10:56 51°37.488 2°47.179 -999 284 1.9 100260 35
2010-12-20 10:57 51°37.71 2°47.302 -999 354 2 100260 35
2010-12-20 10:58 51°37.931 2°47.428 -999 19 2 100260 35
2010-12-20 10:59 51°38.152 2°47.54 -999 307 2.1 100260 35
2010-12-20 11:00 51°38.374 2°47.662 -999 76 2.3 100250 35
2010-12-20 11:01 51°38.595 2°47.79 -999 283 2.4 100250 35
2010-12-20 11:02 51°38.815 2°47.915 -999 284 2.6 100250 36
2010-12-20 11:03 51°39.035 2°48.045 -999 307 2.6 100250 34
2010-12-20 11:04 51°39.254 2°48.182 -999 284 2.5 100260 35
2010-12-20 11:05 51°39.473 2°48.315 -999 284 2.4 100260 35
2010-12-20 11:06 51°39.693 2°48.442 -999 308 2.4 100260 35
2010-12-20 11:07 51°39.911 2°48.578 -999 284 2.3 100250 35
2010-12-20 11:08 51°40.132 2°48.712 -999 338 2.4 100260 35
2010-12-20 11:09 51°40.352 2°48.839 -999 284 2.4 100250 35
2010-12-20 11:10 51°40.572 2°48.965 -999 327 2.4 100250 35
2010-12-20 11:11 51°40.791 2°49.1 -999 284 2.4 100250 34
2010-12-20 11:12 51°41.011 2°49.233 -999 284 2.3 100250 34
2010-12-20 11:13 51°41.228 2°49.373 -999 353 2.4 100260 35
2010-12-20 11:14 51°41.448 2°49.494 -999 284 2.4 100250 35
2010-12-20 11:15 51°41.673 2°49.597 0.1 307 2.5 100250 35
2010-12-20 11:16 51°41.874 2°49.528 4.8 313 2.4 100250 35
2010-12-20 11:17 51°42.061 2°49.358 4.7 281 2.3 100240 34
2010-12-20 11:18 51°42.229 2°49.147 5.6 288 2.4 100230 36
2010-12-20 11:19 51°42.367 2°48.896 7.7 302 2.4 100230 34
2010-12-20 11:20 51°42.444 2°48.6 10.1 285 2.4 100220 34
2010-12-20 11:21 51°42.365 2°48.373 10.6 333 2.4 100230 35
2010-12-20 11:22 51°42.175 2°48.306 11.4 283 2.5 100230 36
2010-12-20 11:23 51°41.988 2°48.208 12.1 329 2.5 100230 35
2010-12-20 11:24 51°41.807 2°48.093 10.6 283 2.4 100230 35
2010-12-20 11:25 51°41.621 2°47.99 11.3 329 2.3 100220 35
2010-12-20 11:26 51°41.438 2°47.874 10 283 2.3 100230 35
2010-12-20 11:27 51°41.263 2°47.739 10.3 330 2.4 100230 35
2010-12-20 11:28 51°41.091 2°47.595 11.3 325 2.4 100230 35
2010-12-20 11:29 51°40.919 2°47.452 10.9 331 2.4 100230 35
2010-12-20 11:30 51°40.746 2°47.313 11.2 283 2.3 100230 35
2010-12-20 11:31 51°40.573 2°47.175 9.6 326 2.3 100230 35
2010-12-20 11:32 51°40.392 2°47.064 10.4 284 2.3 100240 36
2010-12-20 11:33 51°40.207 2°46.965 9.4 329 2.3 100230 36
2010-12-20 11:34 51°40.027 2°46.854 9.8 283 2.3 100240 34
2010-12-20 11:35 51°39.854 2°46.714 9.9 327 2.3 100230 34
2010-12-20 11:36 51°39.681 2°46.569 11.3 281 2.3 100240 34
2010-12-20 11:37 51°39.508 2°46.431 9.9 326 2.3 100240 35
2010-12-20 11:38 51°39.335 2°46.294 9.4 285 2.3 100230 34
2010-12-20 11:39 51°39.161 2°46.153 10.9 283 2.3 100240 35
2010-12-20 11:40 51°38.988 2°46.018 12.7 326 2.3 100230 35
2010-12-20 11:41 51°38.815 2°45.877 11.8 326 2.2 100240 35
2010-12-20 11:42 51°38.642 2°45.735 9.5 328 2.2 100240 35
2010-12-20 11:43 51°38.469 2°45.598 11.3 324 2.3 100250 34
2010-12-20 11:44 51°38.288 2°45.486 11.9 325 2.2 100240 33
2010-12-20 11:45 51°38.105 2°45.379 10.1 329 2.2 100240 35
2010-12-20 11:46 51°37.922 2°45.276 10.9 326 2.2 100240 36
2010-12-20 11:47 51°37.74 2°45.178 10.5 330 2.2 100240 35
2010-12-20 11:48 51°37.557 2°45.077 12.1 328 2.2 100250 35
2010-12-20 11:49 51°37.377 2°44.966 12.1 283 2.3 100240 36
2010-12-20 11:50 51°37.197 2°44.856 10.4 328 2.2 100250 36
2010-12-20 11:51 51°37.018 2°44.747 11.3 329 2.2 100240 35
2010-12-20 11:52 51°36.838 2°44.641 11.6 329 2.1 100240 35
2010-12-20 11:53 51°36.659 2°44.534 12.5 282 2 100240 36
2010-12-20 11:54 51°36.482 2°44.429 10.5 326 2 100260 36
2010-12-20 11:55 51°36.304 2°44.326 11.4 326 1.9 100240 36
2010-12-20 11:56 51°36.125 2°44.222 10.9 326 1.8 100250 36
2010-12-20 11:57 51°35.947 2°44.11 10.4 328 1.9 100250 36
2010-12-20 11:58 51°35.769 2°44.002 12.1 328 1.9 100260 35
2010-12-20 11:59 51°35.591 2°43.898 12.1 330 1.9 100250 36
2010-12-20 12:00 51°35.415 2°43.792 11.5 327 1.9 100240 37
2010-12-20 12:01 51°35.237 2°43.681 10.5 284 1.9 100240 36
2010-12-20 12:02 51°35.061 2°43.571 10.7 330 1.9 100250 37
2010-12-20 12:03 51°34.883 2°43.462 10.6 282 1.9 100260 36
2010-12-20 12:04 51°34.706 2°43.352 10.9 302 1.9 100250 37
2010-12-20 12:05 51°34.529 2°43.244 11.2 326 1.8 100260 37
2010-12-20 12:06 51°34.353 2°43.134 11.2 303 1.8 100250 37
2010-12-20 12:07 51°34.176 2°43.026 12.3 286 1.8 100270 36
2010-12-20 12:08 51°34 2°42.912 9.6 282 1.7 100250 36
2010-12-20 12:09 51°33.822 2°42.797 12.2 325 1.8 100260 37
2010-12-20 12:10 51°33.646 2°42.685 9.3 279 1.7 100260 37
2010-12-20 12:11 51°33.467 2°42.572 12.5 324 1.7 100260 35
2010-12-20 12:12 51°33.29 2°42.457 10.9 284 1.7 100250 36
2010-12-20 12:13 51°33.114 2°42.345 11.9 305 1.7 100260 36
2010-12-20 12:14 51°32.94 2°42.229 11.2 282 1.6 100250 36
2010-12-20 12:15 51°32.765 2°42.116 11.2 328 1.6 100260 37
2010-12-20 12:16 51°32.589 2°42.004 12.1 283 1.5 100260 36
2010-12-20 12:17 51°32.414 2°41.89 12.4 328 1.5 100260 37
2010-12-20 12:18 51°32.237 2°41.775 12.6 281 1.5 100260 36
2010-12-20 12:19 51°32.065 2°41.653 10.3 306 1.4 100250 36
2010-12-20 12:20 51°32.026 2°41.366 9.5 286 1.4 100260 37
2010-12-20 12:21 51°32.048 2°41.047 8.9 285 1.4 100260 37
2010-12-20 12:22 51°32.074 2°40.727 8.4 309 1.5 100260 36
2010-12-20 12:23 51°32.103 2°40.406 9.7 286 1.5 100270 36
2010-12-20 12:24 51°32.13 2°40.083 11.1 308 1.5 100260 37
2010-12-20 12:25 51°32.159 2°39.758 8.3 285 1.5 100270 35
2010-12-20 12:26 51°32.185 2°39.435 9 310 1.5 100260 36
2010-12-20 12:27 51°32.268 2°39.148 4.4 280 1.6 100260 36
2010-12-20 12:28 51°32.49 2°39.177 -999 308 1.7 100290 36
2010-12-20 12:29 51°32.699 2°39.358 0.3 287 1.6 100300 36
2010-12-20 12:30 51°32.873 2°39.627 2.7 1 1.7 100290 38
2010-12-20 12:31 51°33.048 2°39.895 2.3 6 1.6 100290 36
2010-12-20 12:32 51°33.253 2°40.095 -999 352 1.6 100300 36
2010-12-20 12:33 51°33.481 2°40.216 -999 326 1.7 100310 36
2010-12-20 12:34 51°33.712 2°40.326 -999 333 1.7 100290 36
2010-12-20 12:35 51°33.941 2°40.444 -999 338 1.6 100290 36
2010-12-20 12:36 51°34.165 2°40.581 -999 331 1.6 100300 36
2010-12-20 12:37 51°34.39 2°40.719 -999 325 1.7 100290 36
2010-12-20 12:38 51°34.613 2°40.863 0.1 307 1.9 100300 36
2010-12-20 12:39 51°34.836 2°41.008 -999 307 1.9 100300 36
2010-12-20 12:40 51°35.061 2°41.151 -999 330 1.9 100300 36
2010-12-20 12:41 51°35.284 2°41.293 -999 323 1.9 100310 36
2010-12-20 12:42 51°35.506 2°41.433 -999 327 2 100300 36
2010-12-20 12:43 51°35.731 2°41.574 -999 341 2.2 100300 36
2010-12-20 12:44 51°35.954 2°41.717 -999 324 2.2 100300 36
2010-12-20 12:45 51°36.177 2°41.857 0.1 307 2.1 100310 35
2010-12-20 12:46 51°36.402 2°41.996 -999 307 2.2 100300 36
2010-12-20 12:47 51°36.628 2°42.137 -999 307 2.1 100300 35
2010-12-20 12:48 51°36.855 2°42.273 -999 283 2.2 100310 35
2010-12-20 12:49 51°37.081 2°42.41 0.3 288 2.3 100300 36
2010-12-20 12:50 51°37.308 2°42.549 0.1 307 2.4 100300 36
2010-12-20 12:51 51°37.536 2°42.686 0.1 284 2.4 100300 36
2010-12-20 12:52 51°37.765 2°42.822 0.6 279 2.4 100290 36
2010-12-20 12:53 51°37.993 2°42.962 -999 325 2.3 100290 35
2010-12-20 12:54 51°38.223 2°43.098 -999 284 2.3 100290 35
2010-12-20 12:55 51°38.453 2°43.234 -999 284 2.3 100300 34
2010-12-20 12:56 51°38.684 2°43.369 -999 284 2.3 100290 35
2010-12-20 12:57 51°38.914 2°43.506 -999 284 2.4 100290 35
2010-12-20 12:58 51°39.144 2°43.641 -999 284 2.4 100290 35
2010-12-20 12:59 51°39.374 2°43.776 -999 307 2.4 100290 35
2010-12-20 13:00 51°39.603 2°43.909 -999 283 2.3 100300 35
2010-12-20 13:01 51°39.834 2°44.04 -999 283 2.2 100300 35
2010-12-20 13:02 51°40.061 2°44.189 -999 355 2.4 100300 35
2010-12-20 13:03 51°40.287 2°44.342 -999 283 2.4 100300 34
2010-12-20 13:04 51°40.514 2°44.492 -999 284 2.3 100300 35
2010-12-20 13:05 51°40.74 2°44.641 -999 284 2.3 100310 35
2010-12-20 13:06 51°40.965 2°44.791 -999 283 2.2 100300 35
2010-12-20 13:07 51°41.192 2°44.938 -999 359 2.2 100300 35
2010-12-20 13:08 51°41.42 2°45.086 -999 352 2.3 100300 35
2010-12-20 13:09 51°41.646 2°45.235 -999 355 2.3 100310 36
2010-12-20 13:10 51°41.874 2°45.383 -999 350 2.3 100300 35
2010-12-20 13:11 51°42.102 2°45.531 -999 3 2.2 100310 34
2010-12-20 13:12 51°42.33 2°45.679 -999 357 2.2 100310 35
2010-12-20 13:13 51°42.559 2°45.814 -999 283 2.3 100310 36
2010-12-20 13:14 51°42.784 2°45.756 -999 283 2.4 100300 36
2010-12-20 13:15 51°42.94 2°45.511 7.9 281 2.5 100280 35
2010-12-20 13:16 51°43.075 2°45.232 8.2 288 2.4 100290 36
2010-12-20 13:17 51°43.211 2°44.955 6.8 285 2.4 100290 34
2010-12-20 13:18 51°43.347 2°44.678 6.7 286 2.4 100290 35
2010-12-20 13:19 51°43.482 2°44.4 8.2 308 2.4 100280 34
2010-12-20 13:20 51°43.618 2°44.124 7.8 285 2.4 100290 34
2010-12-20 13:21 51°43.637 2°43.833 9.2 324 2.5 100280 35
2010-12-20 13:22 51°43.5 2°43.634 9.7 287 2.5 100290 36
2010-12-20 13:23 51°43.326 2°43.512 12.9 327 2.5 100280 35
2010-12-20 13:24 51°43.158 2°43.371 10 288 2.4 100280 35
2010-12-20 13:25 51°42.989 2°43.23 13 330 2.4 100280 34
2010-12-20 13:26 51°42.821 2°43.079 12 281 2.4 100280 36
2010-12-20 13:27 51°42.644 2°42.959 9.9 331 2.4 100280 34
2010-12-20 13:28 51°42.458 2°42.871 10.2 280 2.4 100280 34
2010-12-20 13:29 51°42.274 2°42.783 11.3 336 2.4 100280 36
2010-12-20 13:30 51°42.089 2°42.694 8.6 285 2.3 100290 35
2010-12-20 13:31 51°41.902 2°42.601 9.6 331 2.2 100290 34
2010-12-20 13:32 51°41.718 2°42.512 10 281 2.3 100290 36
2010-12-20 13:33 51°41.531 2°42.422 9.1 331 2.2 100280 34
2010-12-20 13:34 51°41.347 2°42.331 10.5 283 2.1 100320 35
2010-12-20 13:35 51°41.163 2°42.239 11.2 331 2.2 100300 35
2010-12-20 13:36 51°40.977 2°42.152 10 285 2.1 100310 36
2010-12-20 13:37 51°40.791 2°42.065 11 335 2.2 100300 35
2010-12-20 13:38 51°40.605 2°41.973 12.2 283 2.2 100300 36
2010-12-20 13:39 51°40.419 2°41.883 11 330 2.2 100300 36
2010-12-20 13:40 51°40.234 2°41.791 12.3 283 2.2 100290 36
2010-12-20 13:41 51°40.049 2°41.7 10.4 331 2.1 100300 36
2010-12-20 13:42 51°39.863 2°41.609 11 283 2.1 100310 35
2010-12-20 13:43 51°39.679 2°41.516 11.6 329 2.1 100290 35
2010-12-20 13:44 51°39.495 2°41.428 9.7 280 2 100310 36
2010-12-20 13:45 51°39.312 2°41.339 10.4 331 2 100300 35
2010-12-20 13:46 51°39.131 2°41.256 10.7 286 2 100300 36
2010-12-20 13:47 51°38.949 2°41.161 11 330 2 100300 35
2010-12-20 13:48 51°38.767 2°41.07 12.2 284 2 100310 35
2010-12-20 13:49 51°38.584 2°40.98 11.4 329 2 100300 35
2010-12-20 13:50 51°38.401 2°40.883 10.1 280 2 100320 35
2010-12-20 13:51 51°38.22 2°40.788 12.2 329 1.9 100310 34
2010-12-20 13:52 51°38.039 2°40.69 10.6 283 1.9 100320 34
2010-12-20 13:53 51°37.857 2°40.591 9.9 331 1.9 100310 34
2010-12-20 13:54 51°37.674 2°40.49 10.6 279 1.9 100310 35
2010-12-20 13:55 51°37.492 2°40.388 10.1 334 1.8 100320 35
2010-12-20 13:56 51°37.31 2°40.286 9.1 281 1.8 100320 35
2010-12-20 13:57 51°37.128 2°40.183 12.3 328 1.8 100310 35
2010-12-20 13:58 51°36.947 2°40.079 9.9 283 1.8 100320 34
2010-12-20 13:59 51°36.767 2°39.972 11.6 330 1.8 100330 33
2010-12-20 14:00 51°36.585 2°39.864 13 288 1.8 100320 35
2010-12-20 14:01 51°36.403 2°39.755 11.8 331 1.8 100320 34
2010-12-20 14:02 51°36.222 2°39.648 9.2 282 1.8 100320 35
2010-12-20 14:03 51°36.04 2°39.54 11.1 329 1.9 100320 35
2010-12-20 14:04 51°35.859 2°39.432 10.7 284 1.8 100320 34
2010-12-20 14:05 51°35.678 2°39.321 10.5 332 1.8 100310 34
2010-12-20 14:06 51°35.495 2°39.214 13 331 1.8 100320 35
2010-12-20 14:07 51°35.31 2°39.119 11.4 330 1.8 100330 35
2010-12-20 14:08 51°35.127 2°39.021 9.9 331 1.8 100310 35
2010-12-20 14:09 51°34.945 2°38.932 10.7 329 1.7 100340 33
2010-12-20 14:10 51°34.761 2°38.835 13.1 325 1.7 100320 35
2010-12-20 14:11 51°34.576 2°38.735 11.1 331 1.7 100330 35
2010-12-20 14:12 51°34.392 2°38.632 11.8 302 1.7 100330 35
2010-12-20 14:13 51°34.208 2°38.528 10.8 328 1.6 100330 34
2010-12-20 14:14 51°34.023 2°38.428 11.5 325 1.6 100330 35
2010-12-20 14:15 51°33.835 2°38.33 10.9 329 1.6 100340 34
2010-12-20 14:16 51°33.651 2°38.226 10.1 285 1.6 100330 33
2010-12-20 14:17 51°33.465 2°38.124 12.2 330 1.7 100340 33
2010-12-20 14:18 51°33.28 2°38.02 11 331 1.7 100340 34
2010-12-20 14:19 51°33.094 2°37.92 10 328 1.8 100340 34
2010-12-20 14:20 51°32.908 2°37.815 9.5 328 1.8 100350 34
2010-12-20 14:21 51°32.723 2°37.711 11.6 325 1.8 100350 34
2010-12-20 14:22 51°32.539 2°37.609 9.6 325 1.8 100350 34
2010-12-20 14:23 51°32.354 2°37.506 11.6 330 1.8 100350 33
2010-12-20 14:24 51°32.171 2°37.404 12.7 328 1.8 100350 33
2010-12-20 14:25 51°31.987 2°37.3 12.2 325 1.8 100350 33
2010-12-20 14:26 51°31.802 2°37.197 10.6 302 1.7 100350 34
2010-12-20 14:27 51°2.55 2°50.015 -999 345 -2.9 100150 37
2010-12-20 14:28 51°31.556 2°37.061 10.4 330 1.7 100350 34
2010-12-20 14:29 51°31.373 2°36.958 9.5 328 1.6 100360 34
2010-12-20 14:30 51°31.189 2°36.855 11.5 305 1.6 100350 34
2010-12-20 14:31 51°31.005 2°36.752 11.5 327 1.7 100350 33
2010-12-20 14:32 51°30.82 2°36.646 12.3 326 1.7 100340 33
2010-12-20 14:33 51°30.636 2°36.543 10.6 327 1.6 100350 34
2010-12-20 14:34 51°30.452 2°36.445 11.5 305 1.6 100340 33
2010-12-20 14:35 51°30.268 2°36.339 10.6 306 1.5 100340 34
2010-12-20 14:36 51°30.083 2°36.237 10.8 326 1.6 100350 32
2010-12-20 14:37 51°29.898 2°36.139 10.7 326 1.5 100340 33
2010-12-20 14:38 51°29.715 2°36.039 9.2 306 1.6 100340 34
2010-12-20 14:39 51°29.53 2°35.932 13.5 327 1.6 100340 34
2010-12-20 14:40 51°29.344 2°35.831 10.6 303 1.5 100350 33
2010-12-20 14:41 51°29.159 2°35.729 10.6 326 1.6 100350 34
2010-12-20 14:42 51°28.974 2°35.629 13.2 327 1.5 100330 33
2010-12-20 14:43 51°28.779 2°35.591 11 329 1.4 100350 33
2010-12-20 14:44 51°28.582 2°35.619 6.5 331 1.4 100340 33
2010-12-20 14:45 51°28.396 2°35.734 11.1 343 1.4 100360 33
2010-12-20 14:46 51°28.245 2°35.969 13.3 340 1.4 100340 32
2010-12-20 14:47 51°28.1 2°36.218 12.1 345 1.4 100340 33
2010-12-20 14:48 51°27.953 2°36.465 10.3 341 1.4 100350 33
2010-12-20 14:49 51°27.806 2°36.711 12 343 1.4 100340 32
2010-12-20 14:50 51°27.66 2°36.957 10.1 339 1.4 100340 33
2010-12-20 14:51 51°27.515 2°37.202 10.4 341 1.4 100360 32
2010-12-20 14:52 51°27.367 2°37.443 12 340 1.4 100350 34
2010-12-20 14:53 51°27.223 2°37.686 12.9 341 1.4 100340 33
2010-12-20 14:54 51°27.078 2°37.931 11.7 342 1.4 100340 34
2010-12-20 14:55 51°26.935 2°38.173 14.1 340 1.3 100350 32
2010-12-20 14:56 51°26.79 2°38.412 11.3 340 1.4 100360 34
2010-12-20 14:57 51°26.644 2°38.655 12 338 1.4 100350 32
2010-12-20 14:58 51°26.501 2°38.901 11.8 342 1.4 100370 34
2010-12-20 14:59 51°26.356 2°39.144 13.2 342 1.5 100350 34
2010-12-20 15:00 51°26.211 2°39.387 12 340 1.4 100340 33
2010-12-20 15:01 51°26.064 2°39.626 12.1 336 1.4 100350 34
2010-12-20 15:02 51°25.916 2°39.866 12 342 1.3 100340 32
2010-12-20 15:03 51°25.768 2°40.102 11.3 339 1.3 100350 33
2010-12-20 15:04 51°25.62 2°40.339 14.5 339 1.3 100340 34
2010-12-20 15:05 51°25.473 2°40.575 14 341 1.3 100340 33
2010-12-20 15:06 51°25.329 2°40.816 12.1 339 1.3 100350 33
2010-12-20 15:07 51°25.184 2°41.058 11.9 340 1.2 100360 33
2010-12-20 15:08 51°25.039 2°41.3 13 340 1.2 100350 32
2010-12-20 15:09 51°24.891 2°41.538 11.1 336 1.1 100360 32
2010-12-20 15:10 51°24.745 2°41.78 10.1 343 1.1 100370 33
2010-12-20 15:11 51°24.599 2°42.021 12.3 340 1.2 100370 34
2010-12-20 15:12 51°24.451 2°42.264 10.3 338 1.1 100370 33
2010-12-20 15:13 51°24.299 2°42.501 13.3 340 1.1 100380 33
2010-12-20 15:14 51°24.148 2°42.739 12.3 340 1.1 100370 33
2010-12-20 15:15 51°23.997 2°42.977 10.6 338 1 100390 33
2010-12-20 15:16 51°23.847 2°43.214 12.4 338 1 100390 33
2010-12-20 15:17 51°23.697 2°43.452 12.4 341 0.9 100380 32
2010-12-20 15:18 51°23.544 2°43.685 10.6 339 1 100400 32
2010-12-20 15:19 51°23.392 2°43.916 12.8 338 1 100400 32
2010-12-20 15:20 51°23.233 2°44.139 10.4 337 0.9 100390 33
2010-12-20 15:21 51°23.076 2°44.368 11.9 341 0.9 100390 33
2010-12-20 15:22 51°22.92 2°44.597 10.3 340 0.9 100400 34
2010-12-20 15:23 51°22.763 2°44.824 10.2 338 0.8 100400 33
2010-12-20 15:24 51°22.605 2°45.049 10.4 338 0.8 100390 32
2010-12-20 15:25 51°22.447 2°45.276 10.7 339 0.8 100400 32
2010-12-20 15:26 51°22.29 2°45.504 11.7 337 0.7 100400 32
2010-12-20 15:27 51°22.132 2°45.728 11.4 339 0.7 100400 32
2010-12-20 15:28 51°21.965 2°45.935 10.1 336 0.7 100400 32
2010-12-20 15:29 51°21.8 2°46.146 11 333 0.7 100410 32
2010-12-20 15:30 51°21.634 2°46.355 11.9 335 0.7 100410 33
2010-12-20 15:31 51°21.467 2°46.556 10.3 337 0.7 100400 32
2010-12-20 15:32 51°21.298 2°46.754 10 335 0.6 100410 33
2010-12-20 15:33 51°21.129 2°46.955 11.2 335 0.7 100410 32
2010-12-20 15:34 51°20.962 2°47.161 11 337 0.7 100410 32
2010-12-20 15:35 51°20.796 2°47.369 11.4 335 0.6 100410 33
2010-12-20 15:36 51°20.631 2°47.577 10.2 333 0.6 100410 33
2010-12-20 15:37 51°20.465 2°47.787 9.1 337 0.5 100410 32
2010-12-20 15:38 51°20.298 2°47.996 9 335 0.5 100410 33
2010-12-20 15:39 51°20.132 2°48.208 9.5 334 0.5 100410 33
2010-12-20 15:40 51°19.968 2°48.419 8.8 334 0.4 100420 33
2010-12-20 15:41 51°19.803 2°48.624 9.4 334 0.5 100410 34
2010-12-20 15:42 51°19.636 2°48.83 9.2 336 0.4 100410 32
2010-12-20 15:43 51°19.468 2°49.034 10 335 0.4 100420 34
2010-12-20 15:44 51°19.303 2°49.235 11.1 334 0.4 100410 34
2010-12-20 15:45 51°19.135 2°49.435 10.9 336 0.3 100420 34
2010-12-20 15:46 51°18.968 2°49.631 9.5 336 0.2 100430 33
2010-12-20 15:47 51°18.803 2°49.833 8.2 334 0.2 100430 33
2010-12-20 15:48 51°18.636 2°50.036 10 335 0.2 100430 34
2010-12-20 15:49 51°18.468 2°50.239 10.3 332 0.2 100420 32
2010-12-20 15:50 51°18.301 2°50.444 8.3 332 0.1 100420 33
2010-12-20 15:51 51°18.137 2°50.657 8.1 336 0.1 100420 33
2010-12-20 15:52 51°17.989 2°50.895 8.9 334 0.1 100420 33
2010-12-20 15:53 51°17.852 2°51.147 7.2 336 0.1 100430 34
2010-12-20 15:54 51°17.715 2°51.398 9.3 335 0.1 100430 33
2010-12-20 15:55 51°17.577 2°51.647 8.5 336 -999 100420 33
2010-12-20 15:56 51°17.435 2°51.895 10.6 337 0.1 100420 33
2010-12-20 15:57 51°17.27 2°52.102 10.6 332 0.1 100420 34
2010-12-20 15:58 51°17.085 2°52.27 8.3 330 0.1 100420 33
2010-12-20 15:59 51°16.901 2°52.437 11.1 329 0.1 100420 34
2010-12-20 16:00 51°16.715 2°52.605 9.2 330 -999 100430 34
2010-12-20 16:01 51°16.528 2°52.775 8.4 329 -0.1 100420 34
2010-12-20 16:02 51°16.341 2°52.945 10.1 329 -0.1 100430 33
2010-12-20 16:03 51°16.154 2°53.114 7.9 327 -0.1 100420 35
2010-12-20 16:04 51°15.97 2°53.285 9.2 328 -0.2 100420 35
2010-12-20 16:05 51°15.788 2°53.463 10.6 329 -0.3 100420 34
2010-12-20 16:06 51°15.601 2°53.629 9.7 329 -0.4 100430 35
2010-12-20 16:07 51°15.413 2°53.794 7.5 331 -0.5 100420 35
2010-12-20 16:08 51°15.242 2°53.988 7.8 331 -0.6 100430 34
2010-12-20 16:09 51°15.089 2°54.215 9 331 -0.6 100430 36
2010-12-20 16:10 51°14.953 2°54.476 8.8 332 -0.8 100430 34
2010-12-20 16:11 51°14.777 2°54.712 8.4 330 -0.8 100430 35
2010-12-20 16:12 51°14.601 2°54.894 8.1 332 -0.8 100430 35
2010-12-20 16:13 51°14.429 2°55.09 9.1 328 -0.9 100430 35
2010-12-20 16:14 51°14.263 2°55.287 6.1 328 -1.1 100440 35
2010-12-20 16:15 51°14.11 2°55.428 5.9 328 -1.1 100450 35
2010-12-20 16:16 51°13.975 2°55.52 5.9 326 -1.3 100440 37
2010-12-20 16:17 51°13.857 2°55.597 5.6 324 -1.4 100440 35
2010-12-20 16:18 51°13.772 2°55.695 4.5 331 -1.5 100440 35
2010-12-20 16:19 51°13.713 2°55.809 4.6 332 -1.5 100440 37
2010-12-20 16:20 51°13.678 2°55.895 3.8 333 -1.5 100450 36
2010-12-20 16:21 51°13.663 2°55.957 1.8 338 -1.4 100450 38